createdAt,value
2023-02-23T00:00:31.968Z,6.14
2023-02-23T00:03:01.366Z,6.20
2023-02-23T00:05:30.532Z,6.22
2023-02-23T00:07:57.582Z,6.20
2023-02-23T00:10:30.504Z,6.17
2023-02-23T00:12:58.840Z,6.20
2023-02-23T00:15:26.941Z,6.07
2023-02-23T00:17:57.785Z,6.16
2023-02-23T00:20:27.250Z,6.16
2023-02-23T00:22:55.613Z,6.20
2023-02-23T00:25:24.405Z,6.27
2023-02-23T00:27:52.335Z,6.29
2023-02-23T00:30:20.163Z,6.24
2023-02-23T00:32:50.742Z,6.27
2023-02-23T00:35:19.067Z,6.29
2023-02-23T00:37:49.088Z,6.39
2023-02-23T00:40:17.893Z,6.37
2023-02-23T00:42:46.442Z,6.30
2023-02-23T00:45:14.276Z,6.37
2023-02-23T00:47:44.963Z,6.35
2023-02-23T00:50:15.816Z,6.53
2023-02-23T00:52:43.533Z,6.40
2023-02-23T00:55:15.173Z,6.51
2023-02-23T00:57:41.644Z,6.28
2023-02-23T01:00:28.655Z,6.40
2023-02-23T01:02:55.685Z,6.44
2023-02-23T01:05:22.215Z,6.39
2023-02-23T01:07:49.209Z,6.38
2023-02-23T01:10:22.487Z,6.34
2023-02-23T01:12:50.810Z,6.45
2023-02-23T01:15:19.121Z,6.47
2023-02-23T01:17:46.382Z,6.52
2023-02-23T01:20:19.619Z,6.32
2023-02-23T01:22:48.978Z,6.47
2023-02-23T01:25:16.721Z,6.47
2023-02-23T01:27:46.253Z,6.44
2023-02-23T01:30:15.074Z,6.48
2023-02-23T01:32:43.361Z,6.34
2023-02-23T01:35:12.299Z,6.46
2023-02-23T01:37:41.202Z,6.56
2023-02-23T01:40:16.528Z,6.35
2023-02-23T01:42:46.020Z,6.51
2023-02-23T01:45:34.909Z,6.59
2023-02-23T01:48:07.913Z,6.46
2023-02-23T01:50:42.375Z,6.36
2023-02-23T01:53:09.186Z,6.43
2023-02-23T01:55:36.037Z,6.43
2023-02-23T01:58:15.300Z,6.50
2023-02-23T02:00:50.297Z,6.58
2023-02-23T02:03:40.243Z,6.55
2023-02-23T02:06:09.856Z,6.54
2023-02-23T02:08:44.821Z,6.41
2023-02-23T02:11:34.086Z,6.57
2023-02-23T02:14:09.030Z,6.52
2023-02-23T02:17:03.447Z,6.49
2023-02-23T02:20:06.218Z,6.50
2023-02-23T02:23:09.657Z,6.46
2023-02-23T02:25:42.849Z,6.55
2023-02-23T02:28:22.189Z,6.48
2023-02-23T02:31:09.969Z,6.44
2023-02-23T02:33:48.455Z,6.46
2023-02-23T02:36:30.927Z,6.31
2023-02-23T02:39:22.916Z,6.41
2023-02-23T02:42:19.747Z,6.37
2023-02-23T02:44:52.127Z,6.33
2023-02-23T02:47:44.703Z,6.31
2023-02-23T02:50:20.180Z,6.27
2023-02-23T02:53:02.282Z,6.14
2023-02-23T02:55:37.320Z,6.11
2023-02-23T02:58:07.905Z,6.04
2023-02-23T03:00:56.645Z,5.97
2023-02-23T03:03:50.934Z,6.14
2023-02-23T03:06:38.852Z,6.08
2023-02-23T03:09:44.350Z,6.06
2023-02-23T03:12:54.088Z,5.95
2023-02-23T03:15:55.780Z,5.98
2023-02-23T03:18:55.667Z,5.92
2023-02-23T03:21:51.690Z,5.96
2023-02-23T03:24:48.368Z,5.96
2023-02-23T03:28:27.279Z,5.94
2023-02-23T03:31:24.761Z,5.95
2023-02-23T03:34:32.620Z,5.87
2023-02-23T03:37:30.941Z,5.81
2023-02-23T03:40:31.370Z,5.88
2023-02-23T03:43:19.592Z,5.78
2023-02-23T03:46:07.781Z,5.56
2023-02-23T03:48:54.846Z,5.52
2023-02-23T03:51:43.062Z,5.58
2023-02-23T03:54:37.200Z,5.58
2023-02-23T03:57:26.960Z,5.53
2023-02-23T04:00:17.401Z,5.46
2023-02-23T04:03:06.798Z,5.45
2023-02-23T04:05:55.673Z,5.07
2023-02-23T04:08:46.985Z,5.06
2023-02-23T04:11:52.495Z,5.22
2023-02-23T04:14:28.802Z,5.21
2023-02-23T04:16:57.145Z,4.87
2023-02-23T04:19:28.322Z,5.11
2023-02-23T04:21:57.869Z,4.98
2023-02-23T04:24:24.328Z,4.41
2023-02-23T04:26:50.947Z,5.03
2023-02-23T04:29:17.539Z,5.10
2023-02-23T04:31:44.236Z,4.81
2023-02-23T04:34:10.970Z,4.49
2023-02-23T04:36:37.531Z,4.86
2023-02-23T04:39:04.019Z,4.85
2023-02-23T04:41:30.503Z,4.72
2023-02-23T04:43:57.393Z,4.80
2023-02-23T04:46:23.907Z,4.62
2023-02-23T04:48:50.433Z,4.17
2023-02-23T04:51:17.171Z,4.47
2023-02-23T04:53:44.118Z,4.62
2023-02-23T04:56:11.959Z,4.50
2023-02-23T04:58:38.425Z,4.50
2023-02-23T05:01:06.567Z,4.40
2023-02-23T05:03:33.036Z,4.44
2023-02-23T05:05:59.488Z,4.42
2023-02-23T05:08:25.935Z,4.54
2023-02-23T05:10:52.398Z,4.48
2023-02-23T05:13:18.850Z,4.33
2023-02-23T05:15:45.302Z,4.21
2023-02-23T05:18:11.752Z,4.28
2023-02-23T05:20:38.241Z,4.07
2023-02-23T05:23:05.119Z,3.90
2023-02-23T05:25:31.586Z,3.86
2023-02-23T05:27:58.178Z,4.20
2023-02-23T05:30:24.682Z,4.25
2023-02-23T05:32:51.460Z,4.10
2023-02-23T05:35:17.985Z,4.32
2023-02-23T05:37:44.644Z,4.53
2023-02-23T05:40:11.699Z,4.19
2023-02-23T05:42:38.732Z,4.29
2023-02-23T05:45:06.103Z,4.27
2023-02-23T05:47:33.044Z,4.55
2023-02-23T05:49:59.931Z,4.23
2023-02-23T05:52:26.657Z,4.64
2023-02-23T05:54:53.200Z,4.12
2023-02-23T05:57:19.723Z,4.06
2023-02-23T05:59:46.206Z,4.64
2023-02-23T06:02:12.736Z,4.87
2023-02-23T06:04:42.005Z,4.62
2023-02-23T06:07:08.475Z,4.84
2023-02-23T06:09:35.313Z,4.95
2023-02-23T06:12:01.764Z,4.73
2023-02-23T06:14:28.219Z,5.03
2023-02-23T06:16:55.026Z,4.36
2023-02-23T06:19:21.686Z,4.82
2023-02-23T06:21:48.166Z,5.06
2023-02-23T06:24:14.656Z,4.95
2023-02-23T06:26:43.442Z,5.14
2023-02-23T06:29:11.984Z,5.14
2023-02-23T06:31:38.974Z,5.09
2023-02-23T06:34:05.653Z,5.22
2023-02-23T06:36:32.558Z,5.25
2023-02-23T06:38:59.959Z,5.39
2023-02-23T06:41:27.076Z,5.14
2023-02-23T06:43:57.028Z,5.44
2023-02-23T06:46:24.607Z,5.48
2023-02-23T06:48:55.610Z,5.41
2023-02-23T06:51:22.285Z,5.43
2023-02-23T06:53:48.808Z,5.50
2023-02-23T06:56:15.433Z,5.52
2023-02-23T06:58:43.141Z,5.11
2023-02-23T07:01:10.009Z,5.73
2023-02-23T07:03:36.570Z,5.83
2023-02-23T07:06:04.667Z,5.83
2023-02-23T07:08:32.657Z,5.91
2023-02-23T07:11:10.145Z,6.00
2023-02-23T07:13:37.103Z,6.14
2023-02-23T07:16:03.782Z,6.10
2023-02-23T07:18:30.549Z,6.11
2023-02-23T07:20:57.331Z,6.04
2023-02-23T07:23:24.337Z,6.13
2023-02-23T07:25:52.033Z,6.13
2023-02-23T07:28:19.404Z,6.35
2023-02-23T07:30:45.973Z,6.37
2023-02-23T07:33:12.501Z,6.25
2023-02-23T07:35:39.012Z,6.39
2023-02-23T07:38:07.366Z,6.35
2023-02-23T07:40:33.927Z,6.33
2023-02-23T07:43:00.659Z,6.47
2023-02-23T07:45:27.281Z,6.34
2023-02-23T07:47:53.783Z,6.36
2023-02-23T07:50:20.247Z,6.30
2023-02-23T07:52:46.755Z,6.77
2023-02-23T07:55:13.260Z,6.74
2023-02-23T07:57:39.725Z,6.80
2023-02-23T08:00:07.094Z,6.84
2023-02-23T08:02:39.730Z,6.83
2023-02-23T08:05:06.626Z,6.85
2023-02-23T08:07:33.762Z,7.00
2023-02-23T08:10:00.648Z,7.09
2023-02-23T08:12:27.383Z,7.32
2023-02-23T08:14:54.273Z,7.68
2023-02-23T08:17:20.757Z,7.41
2023-02-23T08:19:47.316Z,7.41
2023-02-23T08:22:13.780Z,7.20
2023-02-23T08:24:40.229Z,7.52
2023-02-23T08:27:06.762Z,7.57
2023-02-23T08:29:34.872Z,7.73
2023-02-23T08:32:03.849Z,7.77
2023-02-23T08:34:31.125Z,8.08
2023-02-23T08:36:57.696Z,7.73
2023-02-23T08:39:24.409Z,7.84
2023-02-23T08:41:50.931Z,7.94
2023-02-23T08:44:17.421Z,7.90
2023-02-23T08:46:45.355Z,7.64
2023-02-23T08:49:11.962Z,8.31
2023-02-23T08:51:40.785Z,8.17
2023-02-23T08:54:12.637Z,8.31
2023-02-23T08:56:39.101Z,8.38
2023-02-23T08:59:05.737Z,8.34
2023-02-23T09:01:32.838Z,8.51
2023-02-23T09:04:00.303Z,8.59
2023-02-23T09:06:27.520Z,8.58
2023-02-23T09:08:55.209Z,8.71
2023-02-23T09:11:22.949Z,8.42
2023-02-23T09:13:49.957Z,8.77
2023-02-23T09:16:17.046Z,8.69
2023-02-23T09:18:43.556Z,8.80
2023-02-23T09:21:22.182Z,8.95
2023-02-23T09:23:51.244Z,8.88
2023-02-23T09:26:19.277Z,9.12
2023-02-23T09:28:46.353Z,9.03
2023-02-23T09:31:15.439Z,9.01
2023-02-23T09:33:42.623Z,9.02
2023-02-23T09:36:12.789Z,8.66
2023-02-23T09:38:39.998Z,8.91
2023-02-23T09:41:30.269Z,9.15
2023-02-23T09:44:29.288Z,9.23
2023-02-23T09:47:32.602Z,9.25
2023-02-23T09:50:02.622Z,9.48
2023-02-23T09:52:40.926Z,9.44
2023-02-23T09:55:11.466Z,9.40
2023-02-23T09:57:42.898Z,9.43
2023-02-23T10:00:27.323Z,9.47
2023-02-23T10:03:30.921Z,9.66
2023-02-23T10:06:06.347Z,9.65
2023-02-23T10:08:46.997Z,9.67
2023-02-23T10:11:41.828Z,9.65
2023-02-23T10:14:31.450Z,9.64
2023-02-23T10:17:30.338Z,9.96
2023-02-23T10:20:11.988Z,9.86
2023-02-23T10:22:40.672Z,9.78
2023-02-23T10:25:22.698Z,9.99
2023-02-23T10:27:55.940Z,9.82
2023-02-23T10:30:31.788Z,9.86
2023-02-23T10:33:22.443Z,9.89
2023-02-23T10:35:52.363Z,9.95
2023-02-23T10:38:20.455Z,10.00
2023-02-23T10:40:51.144Z,10.00
2023-02-23T10:43:17.594Z,9.83
2023-02-23T10:45:47.256Z,9.86
2023-02-23T10:48:19.483Z,9.96
2023-02-23T10:50:49.075Z,9.93
2023-02-23T10:53:24.252Z,9.87
2023-02-23T10:56:05.433Z,9.96
2023-02-23T10:58:46.764Z,9.75
2023-02-23T11:01:33.592Z,10.04
2023-02-23T11:04:23.657Z,10.10
2023-02-23T11:06:52.992Z,10.04
2023-02-23T11:09:41.252Z,10.17
2023-02-23T11:12:35.860Z,10.18
2023-02-23T11:15:48.596Z,10.25
2023-02-23T11:18:24.522Z,10.38
2023-02-23T11:20:51.645Z,10.38
2023-02-23T11:23:23.276Z,10.34
2023-02-23T11:25:55.512Z,10.40
2023-02-23T11:28:30.111Z,10.34
2023-02-23T11:31:01.649Z,10.49
2023-02-23T11:33:35.772Z,10.42
2023-02-23T11:36:35.713Z,10.60
2023-02-23T11:39:14.220Z,10.64
2023-02-23T11:41:40.645Z,10.68
2023-02-23T11:44:07.184Z,10.70
2023-02-23T11:46:38.207Z,10.68
2023-02-23T11:49:17.860Z,10.64
2023-02-23T11:51:49.865Z,10.70
2023-02-23T11:54:57.487Z,10.44
2023-02-23T11:57:28.523Z,10.51
2023-02-23T11:59:56.656Z,10.59
2023-02-23T12:02:31.146Z,10.55
2023-02-23T12:05:10.103Z,10.55
2023-02-23T12:07:41.558Z,10.50
2023-02-23T12:10:18.112Z,10.67
2023-02-23T12:13:12.980Z,10.77
2023-02-23T12:15:55.765Z,10.83
2023-02-23T12:18:44.112Z,10.81
2023-02-23T12:21:29.841Z,10.98
2023-02-23T12:24:02.624Z,11.06
2023-02-23T12:26:31.686Z,10.99
2023-02-23T12:29:05.490Z,10.85
2023-02-23T12:31:48.134Z,10.84
2023-02-23T12:34:34.680Z,10.86
2023-02-23T12:37:15.754Z,10.71
2023-02-23T12:39:47.287Z,10.75
2023-02-23T12:42:30.713Z,10.67
2023-02-23T12:45:02.984Z,10.96
2023-02-23T12:47:51.748Z,10.96
2023-02-23T12:50:32.069Z,11.05
2023-02-23T12:53:06.952Z,11.08
2023-02-23T12:55:48.795Z,10.98
2023-02-23T12:58:29.082Z,11.14
2023-02-23T13:01:16.290Z,11.08
2023-02-23T13:04:05.523Z,11.17
2023-02-23T13:07:05.047Z,11.08
2023-02-23T13:09:40.989Z,11.21
2023-02-23T13:12:10.421Z,11.05
2023-02-23T13:14:48.189Z,11.13
2023-02-23T13:17:38.534Z,10.88
2023-02-23T13:20:17.002Z,11.00
2023-02-23T13:22:55.509Z,10.99
2023-02-23T13:25:28.222Z,10.98
2023-02-23T13:28:00.346Z,11.11
2023-02-23T13:30:32.338Z,11.23
2023-02-23T13:33:18.528Z,11.17
2023-02-23T13:35:45.043Z,10.96
2023-02-23T13:38:22.525Z,11.21
2023-02-23T13:40:58.597Z,11.18
2023-02-23T13:43:32.296Z,11.09
2023-02-23T13:46:30.199Z,11.19
2023-02-23T13:49:02.911Z,11.21
2023-02-23T13:51:52.137Z,11.10
2023-02-23T13:54:22.797Z,10.99
2023-02-23T13:56:55.044Z,10.94
2023-02-23T13:59:33.349Z,11.23
2023-02-23T14:02:06.575Z,11.35
2023-02-23T14:04:42.037Z,11.31
2023-02-23T14:07:29.887Z,11.18
2023-02-23T14:10:25.647Z,11.28
2023-02-23T14:13:14.416Z,11.34
2023-02-23T14:15:44.124Z,11.24
2023-02-23T14:18:20.788Z,11.18
2023-02-23T14:21:05.274Z,11.11
2023-02-23T14:23:56.790Z,11.03
2023-02-23T14:26:29.383Z,10.96
2023-02-23T14:29:26.898Z,10.94
2023-02-23T14:31:58.360Z,10.97
2023-02-23T14:34:43.900Z,11.04
2023-02-23T14:37:25.685Z,10.82
2023-02-23T14:39:56.499Z,10.84
2023-02-23T14:42:29.818Z,10.78
2023-02-23T14:45:02.570Z,10.68
2023-02-23T14:47:29.087Z,10.79
2023-02-23T14:50:01.557Z,10.78
2023-02-23T14:52:41.121Z,10.83
2023-02-23T14:55:10.686Z,10.77
2023-02-23T14:57:39.571Z,10.83
2023-02-23T15:00:15.334Z,10.77
2023-02-23T15:02:55.745Z,10.67
2023-02-23T15:05:25.420Z,10.67
2023-02-23T15:07:54.425Z,10.46
2023-02-23T15:10:46.041Z,10.65
2023-02-23T15:13:29.088Z,10.70
2023-02-23T15:15:57.536Z,10.56
2023-02-23T15:19:22.565Z,10.57
2023-02-23T15:21:58.247Z,10.40
2023-02-23T15:24:33.487Z,10.40
2023-02-23T15:27:00.059Z,10.34
2023-02-23T15:29:33.543Z,10.36
2023-02-23T15:32:19.335Z,10.30
2023-02-23T15:34:46.177Z,10.29
2023-02-23T15:37:36.279Z,10.32
2023-02-23T15:40:24.335Z,10.25
2023-02-23T15:42:55.412Z,10.30
2023-02-23T15:45:34.971Z,10.29
2023-02-23T15:48:18.227Z,10.27
2023-02-23T15:50:52.952Z,10.39
2023-02-23T15:53:30.265Z,10.28
2023-02-23T15:56:03.330Z,10.28
2023-02-23T15:58:44.579Z,10.32
2023-02-23T16:01:27.501Z,10.19
2023-02-23T16:03:57.357Z,10.18
2023-02-23T16:06:26.706Z,10.09
2023-02-23T16:09:22.181Z,10.01
2023-02-23T16:11:52.666Z,9.91
2023-02-23T16:14:21.163Z,10.00
2023-02-23T16:17:08.438Z,9.98
2023-02-23T16:19:40.657Z,9.92
2023-02-23T16:22:21.618Z,9.74
2023-02-23T16:24:59.222Z,9.93
2023-02-23T16:27:28.161Z,9.85
2023-02-23T16:30:23.173Z,9.79
2023-02-23T16:33:06.082Z,9.82
2023-02-23T16:35:45.436Z,9.78
2023-02-23T16:38:34.474Z,9.71
2023-02-23T16:41:03.709Z,9.63
2023-02-23T16:43:31.688Z,9.62
2023-02-23T16:45:58.426Z,9.50
2023-02-23T16:48:24.914Z,9.32
2023-02-23T16:50:51.602Z,9.42
2023-02-23T16:53:18.250Z,9.37
2023-02-23T16:55:52.736Z,9.37
2023-02-23T16:58:25.176Z,9.32
2023-02-23T17:00:53.632Z,9.28
2023-02-23T17:03:21.780Z,8.96
2023-02-23T17:05:48.745Z,9.15
2023-02-23T17:08:15.811Z,9.04
2023-02-23T17:10:45.380Z,9.00
2023-02-23T17:13:21.145Z,8.96
2023-02-23T17:15:53.556Z,8.97
2023-02-23T17:20:56.859Z,8.70
2023-02-23T17:23:27.704Z,8.70
2023-02-23T17:25:55.855Z,8.54
2023-02-23T17:28:22.591Z,8.38
2023-02-23T17:30:49.327Z,8.27
2023-02-23T17:33:16.036Z,8.08
2023-02-23T17:35:42.754Z,7.96
2023-02-23T17:38:09.591Z,8.04
2023-02-23T17:40:37.806Z,7.98
2023-02-23T17:43:07.348Z,7.80
2023-02-23T17:45:34.474Z,7.64
2023-02-23T17:48:00.929Z,7.60
2023-02-23T17:50:28.534Z,7.75
2023-02-23T17:52:55.190Z,7.49
2023-02-23T17:55:22.122Z,7.42
2023-02-23T17:57:48.893Z,7.23
2023-02-23T18:00:17.087Z,7.06
2023-02-23T18:02:45.233Z,7.15
2023-02-23T18:05:12.931Z,6.98
2023-02-23T18:07:39.686Z,6.87
2023-02-23T18:10:06.838Z,7.08
2023-02-23T18:12:33.665Z,6.94
2023-02-23T18:15:00.205Z,6.74
2023-02-23T18:17:26.678Z,6.79
2023-02-23T18:19:53.203Z,6.73
2023-02-23T18:22:19.663Z,6.76
2023-02-23T18:24:46.193Z,6.61
2023-02-23T18:27:12.903Z,6.54
2023-02-23T18:29:39.570Z,6.52
2023-02-23T18:32:07.762Z,6.43
2023-02-23T18:34:34.621Z,6.35
2023-02-23T18:37:02.325Z,6.27
2023-02-23T18:39:30.978Z,6.06
2023-02-23T18:41:57.677Z,6.14
2023-02-23T18:44:24.360Z,6.04
2023-02-23T18:46:50.970Z,6.00
2023-02-23T18:49:20.725Z,6.06
2023-02-23T18:51:47.914Z,5.94
2023-02-23T18:54:18.593Z,5.91
2023-02-23T18:56:46.970Z,5.91
2023-02-23T18:59:14.125Z,5.94
2023-02-23T19:01:45.216Z,5.86
2023-02-23T19:04:12.433Z,5.71
2023-02-23T19:06:42.693Z,5.70
2023-02-23T19:09:12.327Z,5.89
2023-02-23T19:11:39.625Z,5.87
2023-02-23T19:14:10.273Z,5.70
2023-02-23T19:16:37.518Z,5.71
2023-02-23T19:19:06.604Z,5.64
2023-02-23T19:21:33.699Z,5.52
2023-02-23T19:24:02.431Z,5.57
2023-02-23T19:26:30.222Z,5.44
2023-02-23T19:28:57.334Z,5.53
2023-02-23T19:31:26.052Z,5.43
2023-02-23T19:33:55.928Z,5.49
2023-02-23T19:36:29.367Z,5.44
2023-02-23T19:39:10.176Z,5.35
2023-02-23T19:41:38.819Z,5.35
2023-02-23T19:44:05.653Z,5.32
2023-02-23T19:46:32.182Z,5.06
2023-02-23T19:48:58.679Z,5.12
2023-02-23T19:51:25.195Z,5.03
2023-02-23T19:53:55.499Z,5.07
2023-02-23T19:56:24.969Z,5.09
2023-02-23T19:58:52.229Z,5.07
2023-02-23T20:01:21.786Z,4.98
2023-02-23T20:03:55.214Z,5.02
2023-02-23T20:06:25.846Z,4.94
2023-02-23T20:08:55.001Z,4.90
2023-02-23T20:11:22.355Z,4.89
2023-02-23T20:13:50.841Z,4.81
2023-02-23T20:16:17.626Z,4.78
2023-02-23T20:18:44.941Z,4.73
2023-02-23T20:21:24.897Z,4.79
2023-02-23T20:23:51.673Z,4.70
2023-02-23T20:26:22.911Z,4.78
2023-02-23T20:28:50.059Z,4.75
2023-02-23T20:31:21.593Z,5.03
2023-02-23T20:33:50.241Z,4.94
2023-02-23T20:36:18.385Z,4.95
2023-02-23T20:38:44.823Z,4.98
2023-02-23T20:41:11.884Z,4.99
2023-02-23T20:43:39.212Z,5.12
2023-02-23T20:46:06.619Z,5.09
2023-02-23T20:48:34.792Z,5.16
2023-02-23T20:51:01.813Z,5.00
2023-02-23T20:53:29.206Z,5.10
2023-02-23T20:55:55.905Z,5.16
2023-02-23T20:58:25.217Z,5.25
2023-02-23T21:00:57.023Z,5.24
2023-02-23T21:03:25.366Z,5.46
2023-02-23T21:05:52.408Z,5.47
2023-02-23T21:08:20.049Z,5.30
2023-02-23T21:10:48.670Z,5.33
2023-02-23T21:13:15.957Z,5.35
2023-02-23T21:15:44.400Z,5.28
2023-02-23T21:18:11.653Z,5.36
2023-02-23T21:20:39.533Z,5.28
2023-02-23T21:23:06.569Z,5.18
2023-02-23T21:25:33.199Z,5.17
2023-02-23T21:28:02.666Z,5.40
2023-02-23T21:30:29.549Z,5.38
2023-02-23T21:32:57.591Z,5.31
2023-02-23T21:35:24.267Z,5.32
2023-02-23T21:37:51.530Z,5.44
2023-02-23T21:40:23.260Z,5.35
2023-02-23T21:42:50.715Z,5.33
2023-02-23T21:45:18.175Z,5.33
2023-02-23T21:47:46.235Z,5.37
2023-02-23T21:50:15.914Z,5.33
2023-02-23T21:52:43.952Z,5.40
2023-02-23T21:55:21.289Z,5.21
2023-02-23T21:57:49.134Z,5.25
2023-02-23T22:00:19.314Z,5.28
2023-02-23T22:02:46.537Z,5.26
2023-02-23T22:05:15.135Z,5.30
2023-02-23T22:07:47.783Z,5.18
2023-02-23T22:10:14.429Z,5.12
2023-02-23T22:12:40.850Z,5.07
2023-02-23T22:15:08.174Z,5.05
2023-02-23T22:17:36.007Z,5.00
2023-02-23T22:20:05.364Z,4.96
2023-02-23T22:22:35.906Z,4.95
2023-02-23T22:25:07.415Z,4.94
2023-02-23T22:27:33.856Z,5.00
2023-02-23T22:30:01.748Z,4.82
2023-02-23T22:32:32.642Z,4.93
2023-02-23T22:35:00.637Z,4.95
2023-02-23T22:37:29.784Z,4.92
2023-02-23T22:39:57.833Z,4.83
2023-02-23T22:42:24.464Z,4.93
2023-02-23T22:44:51.183Z,5.02
2023-02-23T22:47:17.647Z,4.82
2023-02-23T22:49:46.719Z,4.97
2023-02-23T22:52:13.322Z,5.00
2023-02-23T22:54:39.808Z,4.98
2023-02-23T22:57:06.590Z,4.90
2023-02-23T22:59:33.204Z,5.05
2023-02-23T23:01:59.641Z,5.07
2023-02-23T23:04:26.201Z,4.85
2023-02-23T23:06:52.783Z,5.01
2023-02-23T23:09:21.112Z,5.10
2023-02-23T23:11:50.814Z,5.08
2023-02-23T23:14:19.312Z,5.04
2023-02-23T23:16:51.732Z,5.06
2023-02-23T23:19:25.683Z,5.11
2023-02-23T23:21:55.053Z,5.30
2023-02-23T23:24:23.376Z,5.43
2023-02-23T23:26:55.497Z,5.45
2023-02-23T23:29:23.626Z,5.48
2023-02-23T23:31:51.607Z,5.32
2023-02-23T23:34:21.490Z,5.30
2023-02-23T23:36:49.255Z,5.56
2023-02-23T23:39:21.740Z,5.58
2023-02-23T23:41:49.806Z,5.52
2023-02-23T23:44:20.137Z,5.30
2023-02-23T23:46:47.789Z,5.37
2023-02-23T23:49:17.678Z,5.37
2023-02-23T23:51:50.041Z,5.23
2023-02-23T23:54:39.039Z,5.34
2023-02-23T23:57:06.660Z,5.45
2023-02-23T23:59:34.745Z,5.39
